Time;durP1;ratioP1;P1;durP2;ratioP2;P2;SDS_P1;SDS_P2;PMS_P1;PMS_P2;Temp;Humidity;BMP_temperature;BMP_pressure;BME280_temperature;BME280_humidity;BME280_pressure;Samples;Min_cycle;Max_cycle;Signal;HPM_P1;HPM_P2
2023/12/10 00:00:44;;;;;;;33.30;31.23;;;;;;;;;;4981574;28;20932;-43
2023/12/10 00:03:10;;;;;;;37.00;34.60;;;;;;;;;;4983662;28;20435;-43
2023/12/10 00:05:36;;;;;;;34.65;32.47;;;;;;;;;;4980056;28;20486;-43
2023/12/10 00:08:02;;;;;;;34.70;32.50;;;;;;;;;;4982566;28;20255;-43
2023/12/10 00:10:28;;;;;;;34.67;32.50;;;;;;;;;;4983617;28;20439;-43
2023/12/10 00:12:54;;;;;;;26.10;24.07;;;;;;;;;;4980473;28;21024;-43
2023/12/10 00:15:20;;;;;;;35.90;33.40;;;;;;;;;;4983230;28;20411;-43
2023/12/10 00:17:46;;;;;;;37.75;35.25;;;;;;;;;;4980774;28;20397;-43
2023/12/10 00:20:12;;;;;;;43.30;39.70;;;;;;;;;;4981666;28;20198;-44
2023/12/10 00:22:38;;;;;;;42.10;38.90;;;;;;;;;;4980957;28;20427;-43
2023/12/10 00:25:04;;;;;;;41.75;38.58;;;;;;;;;;4986945;28;20895;-43
2023/12/10 00:27:30;;;;;;;38.53;35.83;;;;;;;;;;4980111;28;20184;-43
2023/12/10 00:29:56;;;;;;;39.78;36.97;;;;;;;;;;4977998;28;20198;-43
2023/12/10 00:32:22;;;;;;;41.00;38.17;;;;;;;;;;4981478;28;20207;-43
2023/12/10 00:34:48;;;;;;;39.20;36.50;;;;;;;;;;4980542;28;20827;-43
2023/12/10 00:37:14;;;;;;;41.83;39.13;;;;;;;;;;4983571;28;20173;-43
2023/12/10 00:39:40;;;;;;;36.65;34.40;;;;;;;;;;4983382;28;20433;-43
2023/12/10 00:42:06;;;;;;;39.05;36.45;;;;;;;;;;4985724;28;20176;-43
2023/12/10 00:44:32;;;;;;;39.17;36.38;;;;;;;;;;4980978;28;20181;-44
2023/12/10 00:46:58;;;;;;;40.03;37.13;;;;;;;;;;4977403;28;20177;-43
2023/12/10 00:49:24;;;;;;;41.93;38.73;;;;;;;;;;4983581;28;20193;-43
2023/12/10 00:51:50;;;;;;;41.33;38.40;;;;;;;;;;4983026;28;20744;-44
2023/12/10 00:54:16;;;;;;;41.07;38.17;;;;;;;;;;4987374;28;20470;-43
2023/12/10 00:56:42;;;;;;;48.20;44.43;;;;;;;;;;4985618;28;20416;-43
2023/12/10 00:59:08;;;;;;;46.50;42.77;;;;;;;;;;4986800;28;20515;-43
2023/12/10 01:01:34;;;;;;;44.35;40.58;;;;;;;;;;4981873;28;20446;-43
2023/12/10 01:04:00;;;;;;;42.83;39.58;;;;;;;;;;4979248;28;20185;-44
2023/12/10 01:06:26;;;;;;;43.70;40.47;;;;;;;;;;4987304;28;20227;-44
2023/12/10 01:08:52;;;;;;;47.13;43.33;;;;;;;;;;4983793;28;20509;-44
2023/12/10 01:11:19;;;;;;;34.37;31.73;;;;;;;;;;4986929;28;20775;-43
2023/12/10 01:13:45;;;;;;;48.65;44.45;;;;;;;;;;4983482;28;20789;-43
2023/12/10 01:16:16;;;;;;;44.97;40.57;;;;;;;;;;4985650;28;20183;-43
2023/12/10 01:18:42;;;;;;;43.88;39.90;;;;;;;;;;4982240;28;20407;-43
2023/12/10 01:21:09;;;;;;;45.95;41.75;;;;;;;;;;4984936;28;20177;-43
2023/12/10 01:23:35;;;;;;;48.13;43.50;;;;;;;;;;4986234;28;20165;-43
2023/12/10 01:26:06;;;;;;;47.28;42.53;;;;;;;;;;4982174;28;20250;-43
2023/12/10 01:28:32;;;;;;;50.42;45.53;;;;;;;;;;4984534;28;20208;-43
2023/12/10 01:30:58;;;;;;;47.77;43.03;;;;;;;;;;4982381;28;20658;-43
2023/12/10 01:33:24;;;;;;;42.60;38.33;;;;;;;;;;4983415;28;20502;-43
2023/12/10 01:35:50;;;;;;;48.60;43.83;;;;;;;;;;4983420;28;20860;-43
2023/12/10 01:38:16;;;;;;;47.43;42.93;;;;;;;;;;4988224;28;20483;-43
2023/12/10 01:40:42;;;;;;;48.60;44.00;;;;;;;;;;4985123;28;20419;-43
2023/12/10 01:43:09;;;;;;;38.70;36.10;;;;;;;;;;4980420;28;20174;-44
2023/12/10 01:45:35;;;;;;;39.22;35.88;;;;;;;;;;4980566;28;20413;-43
2023/12/10 01:48:04;;;;;;;41.00;38.60;;;;;;;;;;4984301;28;20185;-44
2023/12/10 01:50:30;;;;;;;38.05;35.08;;;;;;;;;;4986133;28;20719;-43
2023/12/10 01:52:58;;;;;;;40.45;36.75;;;;;;;;;;4980401;28;20587;-44
2023/12/10 01:55:24;;;;;;;40.58;36.30;;;;;;;;;;4982926;28;20164;-44
2023/12/10 01:57:50;;;;;;;15.70;14.47;;;;;;;;;;4981629;28;20319;-43
2023/12/10 02:00:18;;;;;;;25.95;23.60;;;;;;;;;;4966959;28;20436;-43
2023/12/10 02:02:44;;;;;;;25.83;23.48;;;;;;;;;;4958998;28;20189;-43
2023/12/10 02:05:10;;;;;;;25.98;23.88;;;;;;;;;;4974170;28;20276;-44
2023/12/10 02:07:37;;;;;;;45.10;41.38;;;;;;;;;;4955215;28;20173;-43
2023/12/10 02:10:06;;;;;;;44.92;40.55;;;;;;;;;;4970334;28;20287;-44
2023/12/10 02:12:34;;;;;;;51.58;42.40;;;;;;;;;;4962523;28;20170;-43
2023/12/10 02:15:00;;;;;;;52.55;45.10;;;;;;;;;;4963491;28;20764;-43
2023/12/10 02:17:26;;;;;;;52.33;44.53;;;;;;;;;;4974017;28;20245;-44
2023/12/10 02:19:52;;;;;;;52.25;44.38;;;;;;;;;;4973879;28;20432;-44
2023/12/10 02:22:20;;;;;;;63.67;44.23;;;;;;;;;;4955551;28;20658;-44
2023/12/10 02:24:51;;;;;;;54.47;44.40;;;;;;;;;;4971204;28;20413;-44
2023/12/10 02:27:17;;;;;;;63.28;44.75;;;;;;;;;;4962069;28;20178;-43
2023/12/10 02:29:43;;;;;;;61.95;46.10;;;;;;;;;;4963668;28;20197;-44
2023/12/10 02:32:09;;;;;;;58.43;45.67;;;;;;;;;;4969662;28;20527;-43
2023/12/10 02:34:35;;;;;;;70.03;47.47;;;;;;;;;;4955575;28;20457;-44
2023/12/10 02:37:02;;;;;;;67.55;43.75;;;;;;;;;;4974452;28;20634;-44
2023/12/10 02:39:28;;;;;;;72.15;46.15;;;;;;;;;;4957551;28;20198;-44
2023/12/10 02:41:54;;;;;;;83.23;45.90;;;;;;;;;;4967098;28;20182;-43
2023/12/10 02:44:20;;;;;;;61.77;41.20;;;;;;;;;;4966045;28;20568;-44
2023/12/10 02:46:48;;;;;;;67.20;43.30;;;;;;;;;;4959048;28;20424;-43
2023/12/10 02:49:14;;;;;;;44.30;40.00;;;;;;;;;;4973202;28;21008;-43
2023/12/10 02:51:40;;;;;;;42.75;38.78;;;;;;;;;;4954825;28;20253;-43
2023/12/10 02:54:06;;;;;;;22.90;20.57;;;;;;;;;;4954992;28;20289;-43
2023/12/10 02:56:32;;;;;;;20.37;19.07;;;;;;;;;;4969924;28;20767;-44
2023/12/10 02:58:58;;;;;;;22.37;20.67;;;;;;;;;;4965479;28;20875;-43
2023/12/10 03:01:24;;;;;;;23.80;21.48;;;;;;;;;;4958524;28;20437;-44
2023/12/10 03:03:50;;;;;;;24.15;22.17;;;;;;;;;;4973741;28;20609;-44
2023/12/10 03:06:16;;;;;;;23.45;21.65;;;;;;;;;;4973382;28;20177;-44
2023/12/10 03:08:42;;;;;;;38.92;32.47;;;;;;;;;;4973694;28;20180;-43
2023/12/10 03:11:08;;;;;;;16.95;15.77;;;;;;;;;;4962376;28;20208;-43
2023/12/10 03:13:34;;;;;;;43.92;39.47;;;;;;;;;;4961728;28;20287;-44
2023/12/10 03:16:00;;;;;;;53.10;44.43;;;;;;;;;;4969433;28;20201;-44
2023/12/10 03:18:27;;;;;;;53.30;45.47;;;;;;;;;;4954115;28;20907;-43
2023/12/10 03:20:53;;;;;;;43.67;38.35;;;;;;;;;;4954667;28;20284;-44
2023/12/10 03:23:19;;;;;;;42.47;32.57;;;;;;;;;;4969158;28;20344;-44
2023/12/10 03:25:45;;;;;;;84.20;50.25;;;;;;;;;;4962272;28;20422;-44
2023/12/10 03:28:11;;;;;;;74.97;46.05;;;;;;;;;;4961202;28;20189;-44
2023/12/10 03:30:37;;;;;;;21.30;20.00;;;;;;;;;;4970071;28;20235;-44
2023/12/10 03:33:04;;;;;;;26.03;24.43;;;;;;;;;;4954135;28;20467;-44
2023/12/10 03:35:30;;;;;;;81.43;46.47;;;;;;;;;;4972604;28;20408;-44
2023/12/10 03:37:56;;;;;;;70.13;44.87;;;;;;;;;;4958528;28;20188;-44
2023/12/10 03:40:22;;;;;;;77.03;45.30;;;;;;;;;;4964163;28;20425;-43
2023/12/10 03:42:48;;;;;;;82.78;45.28;;;;;;;;;;4966479;28;20177;-43
2023/12/10 03:45:15;;;;;;;102.37;46.93;;;;;;;;;;4956559;28;20180;-44
2023/12/10 03:47:46;;;;;;;30.38;28.00;;;;;;;;;;4973285;28;20410;-43
2023/12/10 03:50:12;;;;;;;94.03;46.03;;;;;;;;;;4953904;28;20292;-44
2023/12/10 03:52:38;;;;;;;147.07;51.00;;;;;;;;;;4968597;28;20200;-43
2023/12/10 03:55:04;;;;;;;149.05;49.97;;;;;;;;;;4965760;28;20331;-44
2023/12/10 03:57:30;;;;;;;154.70;52.45;;;;;;;;;;4972593;28;20188;-44
2023/12/10 03:59:56;;;;;;;150.97;51.37;;;;;;;;;;4969586;28;20267;-43
2023/12/10 04:02:22;;;;;;;157.55;52.65;;;;;;;;;;4953746;28;20435;-44
2023/12/10 04:04:48;;;;;;;106.20;45.73;;;;;;;;;;4971976;28;20188;-44
2023/12/10 04:07:14;;;;;;;110.90;45.77;;;;;;;;;;4959137;28;20457;-44
2023/12/10 04:09:40;;;;;;;162.27;50.85;;;;;;;;;;4963805;28;20935;-44
2023/12/10 04:12:06;;;;;;;137.53;48.43;;;;;;;;;;4966482;28;20194;-44
2023/12/10 04:14:32;;;;;;;126.05;47.70;;;;;;;;;;4955975;28;20480;-43
2023/12/10 04:16:58;;;;;;;146.40;50.03;;;;;;;;;;4972961;28;20169;-44
2023/12/10 04:19:24;;;;;;;126.13;46.73;;;;;;;;;;4954487;28;20440;-43
2023/12/10 04:21:50;;;;;;;136.77;48.50;;;;;;;;;;4967314;28;20416;-44
2023/12/10 04:24:16;;;;;;;96.57;42.97;;;;;;;;;;4962830;28;20966;-43
2023/12/10 04:26:42;;;;;;;102.32;43.15;;;;;;;;;;4961343;28;20198;-43
2023/12/10 04:29:08;;;;;;;114.40;45.70;;;;;;;;;;4974363;28;20220;-43
2023/12/10 04:31:36;;;;;;;107.67;44.47;;;;;;;;;;4957497;28;21102;-42
2023/12/10 04:34:02;;;;;;;135.13;47.67;;;;;;;;;;4974524;28;20461;-43
2023/12/10 04:36:28;;;;;;;159.87;51.20;;;;;;;;;;4962979;28;20182;-43
2023/12/10 04:38:54;;;;;;;155.98;49.42;;;;;;;;;;4966265;28;20911;-43
2023/12/10 04:41:20;;;;;;;111.93;44.80;;;;;;;;;;4970919;28;20167;-43
2023/12/10 04:43:48;;;;;;;65.40;32.40;;;;;;;;;;4958620;28;20394;-43
2023/12/10 04:46:14;;;;;;;102.20;42.75;;;;;;;;;;4976523;28;20703;-43
2023/12/10 04:48:40;;;;;;;80.40;38.27;;;;;;;;;;4958632;28;20180;-43
2023/12/10 04:51:06;;;;;;;104.65;46.10;;;;;;;;;;4970197;28;20438;-43
2023/12/10 04:53:32;;;;;;;110.30;45.72;;;;;;;;;;4966786;28;20196;-43
2023/12/10 04:55:59;;;;;;;116.18;44.75;;;;;;;;;;4967422;28;20179;-43
2023/12/10 04:58:25;;;;;;;152.68;58.10;;;;;;;;;;4974442;28;20168;-43
2023/12/10 05:00:51;;;;;;;132.88;48.10;;;;;;;;;;4956811;28;20684;-43
2023/12/10 05:03:17;;;;;;;90.65;41.28;;;;;;;;;;4973463;28;20200;-43
2023/12/10 05:05:43;;;;;;;91.93;42.70;;;;;;;;;;4963102;28;20204;-43
2023/12/10 05:08:09;;;;;;;24.98;22.45;;;;;;;;;;4965378;28;20422;-43
2023/12/10 05:10:35;;;;;;;34.15;30.70;;;;;;;;;;4970713;28;20210;-43
2023/12/10 05:13:01;;;;;;;52.70;40.23;;;;;;;;;;4957379;28;20259;-42
2023/12/10 05:15:27;;;;;;;92.82;43.97;;;;;;;;;;4976013;28;20406;-43
2023/12/10 05:17:53;;;;;;;89.47;38.50;;;;;;;;;;4959216;28;20515;-43
2023/12/10 05:20:19;;;;;;;50.40;41.00;;;;;;;;;;4968520;28;20199;-43
2023/12/10 05:22:45;;;;;;;16.87;15.50;;;;;;;;;;4967219;28;20928;-43
2023/12/10 05:25:11;;;;;;;12.87;11.57;;;;;;;;;;4960725;28;20455;-43
2023/12/10 05:27:37;;;;;;;21.53;19.93;;;;;;;;;;4975626;28;20419;-43
2023/12/10 05:30:03;;;;;;;40.87;35.63;;;;;;;;;;4956017;28;20928;-43
2023/12/10 05:32:29;;;;;;;17.05;15.32;;;;;;;;;;4971945;28;20417;-42
2023/12/10 05:34:55;;;;;;;14.27;13.10;;;;;;;;;;4963596;28;20777;-43
2023/12/10 05:37:21;;;;;;;18.30;16.53;;;;;;;;;;4963465;28;20526;-43
2023/12/10 05:39:47;;;;;;;61.47;42.20;;;;;;;;;;4971091;28;20438;-44
2023/12/10 05:42:13;;;;;;;44.05;36.15;;;;;;;;;;4956325;28;20491;-44
2023/12/10 05:44:39;;;;;;;40.37;35.50;;;;;;;;;;4975313;28;20255;-43
2023/12/10 05:47:06;;;;;;;57.60;42.83;;;;;;;;;;4959899;28;20417;-43
2023/12/10 05:49:32;;;;;;;90.55;45.60;;;;;;;;;;4966937;28;20439;-43
2023/12/10 05:51:57;;;;;;;104.17;47.80;;;;;;;;;;4967777;28;20186;-44
2023/12/10 05:54:23;;;;;;;75.23;44.60;;;;;;;;;;4959366;28;20466;-44
2023/12/10 05:56:49;;;;;;;139.47;49.60;;;;;;;;;;4975177;28;20411;-44
2023/12/10 05:59:16;;;;;;;102.17;45.07;;;;;;;;;;4974237;28;20838;-44
2023/12/10 06:01:42;;;;;;;74.40;42.50;;;;;;;;;;4959961;28;20529;-44
2023/12/10 06:04:08;;;;;;;47.33;27.60;;;;;;;;;;4966476;28;20234;-44
2023/12/10 06:06:34;;;;;;;81.78;46.35;;;;;;;;;;4967826;28;20195;-43
2023/12/10 06:09:00;;;;;;;117.30;48.63;;;;;;;;;;4958078;28;20270;-44
2023/12/10 06:11:26;;;;;;;118.90;48.53;;;;;;;;;;4975098;28;20411;-44
2023/12/10 06:13:52;;;;;;;87.40;44.92;;;;;;;;;;4956306;28;20967;-43
2023/12/10 06:16:18;;;;;;;63.00;37.15;;;;;;;;;;4969448;28;20175;-44
2023/12/10 06:18:44;;;;;;;98.82;47.15;;;;;;;;;;4964011;28;20187;-44
2023/12/10 06:21:10;;;;;;;36.55;32.72;;;;;;;;;;4961581;28;20176;-44
2023/12/10 06:23:36;;;;;;;82.97;45.60;;;;;;;;;;4972644;28;20190;-44
2023/12/10 06:26:02;;;;;;;67.85;43.53;;;;;;;;;;4955399;28;20401;-44
2023/12/10 06:28:28;;;;;;;103.80;50.55;;;;;;;;;;4972595;28;20563;-44
2023/12/10 06:30:54;;;;;;;90.82;45.20;;;;;;;;;;4960599;28;20213;-44
2023/12/10 06:33:20;;;;;;;60.08;42.85;;;;;;;;;;4964759;28;20280;-44
2023/12/10 06:35:46;;;;;;;96.80;47.20;;;;;;;;;;4968545;28;20218;-44
2023/12/10 06:38:12;;;;;;;40.77;36.63;;;;;;;;;;4956641;28;20411;-43
2023/12/10 06:40:38;;;;;;;36.20;33.20;;;;;;;;;;4974190;28;20434;-44
2023/12/10 06:43:04;;;;;;;38.53;35.37;;;;;;;;;;4956890;28;20766;-44
2023/12/10 06:45:30;;;;;;;44.93;40.43;;;;;;;;;;4968111;28;20420;-44
2023/12/10 06:47:56;;;;;;;71.88;44.85;;;;;;;;;;4964822;28;20408;-44
2023/12/10 06:50:22;;;;;;;75.27;45.37;;;;;;;;;;4958668;28;20197;-44
2023/12/10 06:52:48;;;;;;;86.83;47.47;;;;;;;;;;4972710;28;20732;-44
2023/12/10 06:55:14;;;;;;;70.67;44.57;;;;;;;;;;4959835;28;20432;-44
2023/12/10 06:57:40;;;;;;;59.13;43.08;;;;;;;;;;4973371;28;20483;-44
2023/12/10 07:00:06;;;;;;;64.88;44.00;;;;;;;;;;4960786;28;20198;-44
2023/12/10 07:02:32;;;;;;;63.03;43.92;;;;;;;;;;4963141;28;20271;-43
2023/12/10 07:04:58;;;;;;;58.95;42.00;;;;;;;;;;4968963;28;20208;-43
2023/12/10 07:07:24;;;;;;;68.65;45.70;;;;;;;;;;4955210;28;20173;-43
2023/12/10 07:09:50;;;;;;;51.20;43.27;;;;;;;;;;4974016;28;20203;-43
2023/12/10 07:12:16;;;;;;;48.13;43.23;;;;;;;;;;4957311;28;20481;-44
2023/12/10 07:14:42;;;;;;;43.23;39.10;;;;;;;;;;4966452;28;20459;-44
2023/12/10 07:17:08;;;;;;;39.37;36.40;;;;;;;;;;4966093;28;20905;-43
2023/12/10 07:19:34;;;;;;;29.70;27.70;;;;;;;;;;4968861;28;20433;-44
2023/12/10 07:22:00;;;;;;;44.37;40.97;;;;;;;;;;4952520;28;20176;-44
2023/12/10 07:24:26;;;;;;;49.65;44.55;;;;;;;;;;4971555;28;20411;-43
2023/12/10 07:26:52;;;;;;;48.70;43.58;;;;;;;;;;4956512;28;20178;-43
2023/12/10 07:29:18;;;;;;;49.35;44.38;;;;;;;;;;4962030;28;20227;-43
2023/12/10 07:31:44;;;;;;;69.83;48.33;;;;;;;;;;4982846;28;20541;-43
2023/12/10 07:34:10;;;;;;;60.30;46.65;;;;;;;;;;4983564;28;20447;-43
2023/12/10 07:36:36;;;;;;;80.10;52.10;;;;;;;;;;4983384;28;20730;-43
2023/12/10 07:39:02;;;;;;;48.50;43.80;;;;;;;;;;4983007;28;20419;-43
2023/12/10 07:41:28;;;;;;;49.95;44.92;;;;;;;;;;4979388;28;20433;-44
2023/12/10 07:43:54;;;;;;;79.87;50.53;;;;;;;;;;4984178;28;20671;-44
2023/12/10 07:46:20;;;;;;;45.13;41.38;;;;;;;;;;4982879;28;20414;-43
2023/12/10 07:48:46;;;;;;;49.90;45.45;;;;;;;;;;4981147;28;20177;-44
2023/12/10 07:51:12;;;;;;;48.30;44.20;;;;;;;;;;4983711;28;20727;-44
2023/12/10 07:53:41;;;;;;;54.90;48.97;;;;;;;;;;4976053;28;20590;-44
2023/12/10 07:56:08;;;;;;;43.60;39.58;;;;;;;;;;4982188;28;20414;-44
2023/12/10 07:58:34;;;;;;;55.65;50.75;;;;;;;;;;4980720;28;20237;-44
2023/12/10 08:01:00;;;;;;;32.17;29.35;;;;;;;;;;4985891;28;20204;-44
2023/12/10 08:03:26;;;;;;;27.27;25.38;;;;;;;;;;4977655;28;20192;-44
2023/12/10 08:05:52;;;;;;;48.03;43.73;;;;;;;;;;4981801;28;20187;-44
2023/12/10 08:08:18;;;;;;;60.00;53.17;;;;;;;;;;4978787;28;20509;-43
2023/12/10 08:10:46;;;;;;;53.92;48.33;;;;;;;;;;4984511;28;20431;-44
2023/12/10 08:13:12;;;;;;;72.97;51.92;;;;;;;;;;4979795;28;20298;-44
2023/12/10 08:15:37;;;;;;;78.30;52.30;;;;;;;;;;4980905;28;20208;-44
2023/12/10 08:18:04;;;;;;;93.47;54.80;;;;;;;;;;4981778;28;20457;-43
2023/12/10 08:20:30;;;;;;;50.15;44.75;;;;;;;;;;4981596;28;20423;-44
2023/12/10 08:22:56;;;;;;;44.87;41.13;;;;;;;;;;4984949;28;20598;-44
2023/12/10 08:25:22;;;;;;;54.90;48.93;;;;;;;;;;4980621;28;20423;-44
2023/12/10 08:27:48;;;;;;;62.78;50.63;;;;;;;;;;4984361;28;20465;-43
2023/12/10 08:30:14;;;;;;;69.13;50.15;;;;;;;;;;4978166;28;20247;-44
2023/12/10 08:32:40;;;;;;;70.68;51.00;;;;;;;;;;4978536;28;20201;-43
2023/12/10 08:35:06;;;;;;;78.07;52.30;;;;;;;;;;4982393;28;20232;-43
2023/12/10 08:37:32;;;;;;;67.45;51.92;;;;;;;;;;4983973;28;20966;-43
2023/12/10 08:39:59;;;;;;;93.28;53.78;;;;;;;;;;4981180;28;20196;-43
2023/12/10 08:42:27;;;;;;;60.60;50.15;;;;;;;;;;4983734;28;20176;-44
2023/12/10 08:44:53;;;;;;;83.95;53.90;;;;;;;;;;4983141;28;20275;-44
2023/12/10 08:47:19;;;;;;;87.10;54.03;;;;;;;;;;4977133;28;20259;-43
2023/12/10 08:49:45;;;;;;;61.42;45.35;;;;;;;;;;4983457;28;20515;-44
2023/12/10 08:52:11;;;;;;;42.42;39.33;;;;;;;;;;4981605;28;20693;-43
2023/12/10 08:54:37;;;;;;;41.73;38.40;;;;;;;;;;4981886;28;20216;-43
2023/12/10 08:57:03;;;;;;;46.83;43.15;;;;;;;;;;4981855;28;20405;-43
2023/12/10 08:59:29;;;;;;;54.58;45.65;;;;;;;;;;4981273;28;20201;-43
2023/12/10 09:01:55;;;;;;;66.40;45.33;;;;;;;;;;4981512;28;20192;-43
2023/12/10 09:04:21;;;;;;;39.35;35.63;;;;;;;;;;4980345;28;20408;-44
2023/12/10 09:06:47;;;;;;;38.92;36.13;;;;;;;;;;4985692;28;20554;-44
2023/12/10 09:09:13;;;;;;;41.88;38.13;;;;;;;;;;4979464;28;20217;-44
2023/12/10 09:11:39;;;;;;;25.53;23.83;;;;;;;;;;4980300;28;20187;-43
2023/12/10 09:14:07;;;;;;;31.67;29.13;;;;;;;;;;4983663;28;20480;-44
2023/12/10 09:16:33;;;;;;;82.45;50.75;;;;;;;;;;4983742;28;20909;-43
2023/12/10 09:18:59;;;;;;;101.97;51.38;;;;;;;;;;4984248;28;20196;-43
2023/12/10 09:21:25;;;;;;;112.67;55.20;;;;;;;;;;4988655;28;20177;-43
2023/12/10 09:23:51;;;;;;;93.33;53.80;;;;;;;;;;4987429;28;20422;-44
2023/12/10 09:26:17;;;;;;;112.70;57.42;;;;;;;;;;4974001;28;20470;-44
2023/12/10 09:28:43;;;;;;;71.40;49.70;;;;;;;;;;4981063;28;20264;-43
2023/12/10 09:31:09;;;;;;;110.88;56.50;;;;;;;;;;4985806;28;20197;-43
2023/12/10 09:33:35;;;;;;;70.43;51.00;;;;;;;;;;4986683;28;20226;-43
2023/12/10 09:36:01;;;;;;;93.45;49.97;;;;;;;;;;4978163;28;20492;-43
2023/12/10 09:38:27;;;;;;;98.37;54.67;;;;;;;;;;4963348;28;20269;-43
2023/12/10 09:40:53;;;;;;;95.43;53.17;;;;;;;;;;4966250;28;20477;-43
2023/12/10 09:43:19;;;;;;;72.87;50.90;;;;;;;;;;4970967;28;20421;-43
2023/12/10 09:45:45;;;;;;;73.13;52.35;;;;;;;;;;4956929;28;20758;-43
2023/12/10 09:48:11;;;;;;;64.53;50.27;;;;;;;;;;4975006;28;20646;-43
2023/12/10 09:50:42;;;;;;;77.80;53.78;;;;;;;;;;4957288;28;20437;-43
2023/12/10 09:53:08;;;;;;;81.18;54.67;;;;;;;;;;4966294;28;20185;-43
2023/12/10 09:55:35;;;;;;;72.80;50.88;;;;;;;;;;4973669;28;20170;-43
2023/12/10 09:58:01;;;;;;;68.43;51.83;;;;;;;;;;4973707;28;20179;-43
2023/12/10 10:00:28;;;;;;;78.35;51.50;;;;;;;;;;4974119;28;20193;-43
2023/12/10 10:03:00;;;;;;;79.38;52.15;;;;;;;;;;4955780;28;20186;-43
2023/12/10 10:05:27;;;;;;;63.15;50.42;;;;;;;;;;4972407;28;20573;-43
2023/12/10 10:07:53;;;;;;;69.78;50.35;;;;;;;;;;4962734;28;20166;-43
2023/12/10 10:10:22;;;;;;;73.57;49.03;;;;;;;;;;4964442;28;20268;-42
2023/12/10 10:12:48;;;;;;;74.88;49.40;;;;;;;;;;4969461;28;20945;-43
2023/12/10 10:15:14;;;;;;;77.32;50.35;;;;;;;;;;4955920;28;20194;-42
2023/12/10 10:17:43;;;;;;;102.60;55.00;;;;;;;;;;4955501;28;20188;-43
2023/12/10 10:20:09;;;;;;;97.63;56.30;;;;;;;;;;4972180;28;20936;-43
2023/12/10 10:22:35;;;;;;;107.03;53.25;;;;;;;;;;4973930;28;20169;-43
2023/12/10 10:25:03;;;;;;;121.63;55.93;;;;;;;;;;4974367;28;20193;-43
2023/12/10 10:27:31;;;;;;;125.30;57.72;;;;;;;;;;4969025;28;20420;-43
2023/12/10 10:29:58;;;;;;;137.63;60.15;;;;;;;;;;4956525;28;20186;-42
2023/12/10 10:32:24;;;;;;;149.93;58.22;;;;;;;;;;4974382;28;20170;-42
2023/12/10 10:34:51;;;;;;;102.63;55.57;;;;;;;;;;4957062;28;20210;-43
2023/12/10 10:37:17;;;;;;;128.80;58.00;;;;;;;;;;4968488;28;20407;-43
2023/12/10 10:39:44;;;;;;;130.52;58.03;;;;;;;;;;4964350;28;20190;-42
2023/12/10 10:42:11;;;;;;;137.60;57.90;;;;;;;;;;4960615;28;20172;-42
2023/12/10 10:44:37;;;;;;;127.00;58.40;;;;;;;;;;4971642;28;20180;-42
2023/12/10 10:47:08;;;;;;;132.20;57.58;;;;;;;;;;4954051;28;20555;-43
2023/12/10 10:49:36;;;;;;;117.15;54.72;;;;;;;;;;4972430;28;20245;-43
2023/12/10 10:52:03;;;;;;;88.60;53.75;;;;;;;;;;4959914;28;20189;-42
2023/12/10 10:54:29;;;;;;;71.60;50.85;;;;;;;;;;4964922;28;20209;-42
2023/12/10 10:56:55;;;;;;;102.97;55.70;;;;;;;;;;4967635;28;20572;-43
2023/12/10 10:59:47;;;;;;;117.68;57.88;;;;;;;;;;4956681;28;20212;-42
2023/12/10 11:02:13;;;;;;;113.78;55.88;;;;;;;;;;4970932;28;20805;-43
2023/12/10 11:04:40;;;;;;;75.90;50.20;;;;;;;;;;4954880;28;20249;-43
2023/12/10 11:07:06;;;;;;;104.18;53.58;;;;;;;;;;4971811;28;20415;-42
2023/12/10 11:09:32;;;;;;;115.05;55.13;;;;;;;;;;4960068;28;20201;-43
2023/12/10 11:11:59;;;;;;;120.38;56.08;;;;;;;;;;4961802;28;20205;-43
2023/12/10 11:14:25;;;;;;;122.85;57.33;;;;;;;;;;4984729;28;20612;-43
2023/12/10 11:16:58;;;;;;;88.07;52.90;;;;;;;;;;4981929;28;20174;-42
2023/12/10 11:19:24;;;;;;;125.30;57.83;;;;;;;;;;4980071;28;20196;-42
2023/12/10 11:21:50;;;;;;;106.25;55.88;;;;;;;;;;4974360;28;20646;-43
2023/12/10 11:24:16;;;;;;;106.40;54.33;;;;;;;;;;4983062;28;20257;-43
2023/12/10 11:26:43;;;;;;;108.47;57.83;;;;;;;;;;4980284;28;20180;-43
2023/12/10 11:29:09;;;;;;;108.70;58.72;;;;;;;;;;4981826;28;20215;-43
2023/12/10 11:31:35;;;;;;;115.88;61.40;;;;;;;;;;4983329;28;20543;-43
2023/12/10 11:34:01;;;;;;;106.57;60.70;;;;;;;;;;4979049;28;20212;-43
2023/12/10 11:36:27;;;;;;;99.15;62.22;;;;;;;;;;4980240;28;20419;-43
2023/12/10 11:38:53;;;;;;;101.03;62.20;;;;;;;;;;4979666;28;20587;-43
2023/12/10 11:41:19;;;;;;;84.73;54.77;;;;;;;;;;4974244;28;20188;-43
2023/12/10 11:43:45;;;;;;;87.67;58.40;;;;;;;;;;4972455;28;20501;-43
2023/12/10 11:46:20;;;;;;;55.67;51.10;;;;;;;;;;4973367;28;20415;-44
2023/12/10 11:48:46;;;;;;;66.90;60.55;;;;;;;;;;4972627;28;20184;-43
2023/12/10 11:51:12;;;;;;;73.88;57.38;;;;;;;;;;4973180;28;20181;-42
2023/12/10 11:53:38;;;;;;;42.72;39.97;;;;;;;;;;4972953;28;20212;-43
2023/12/10 11:56:05;;;;;;;75.60;59.00;;;;;;;;;;4972991;28;20185;-43
2023/12/10 11:58:32;;;;;;;79.15;60.35;;;;;;;;;;4973050;28;20556;-43
2023/12/10 12:00:59;;;;;;;58.78;52.78;;;;;;;;;;4973107;28;20205;-43
2023/12/10 12:03:26;;;;;;;58.35;52.22;;;;;;;;;;4973025;28;20683;-43
2023/12/10 12:05:55;;;;;;;48.45;44.47;;;;;;;;;;4973033;28;20234;-43
2023/12/10 12:08:24;;;;;;;42.95;40.05;;;;;;;;;;4972797;28;20299;-42
2023/12/10 12:10:50;;;;;;;46.53;43.33;;;;;;;;;;4972690;28;20211;-43
2023/12/10 12:13:19;;;;;;;35.38;33.08;;;;;;;;;;4972792;28;20179;-43
2023/12/10 12:15:48;;;;;;;34.50;32.40;;;;;;;;;;4972860;28;20197;-43
2023/12/10 12:18:15;;;;;;;36.90;34.50;;;;;;;;;;4973027;28;20166;-43
2023/12/10 12:20:41;;;;;;;44.75;41.88;;;;;;;;;;4972790;28;20640;-43
2023/12/10 12:23:07;;;;;;;37.42;35.10;;;;;;;;;;4971593;28;20174;-44
2023/12/10 12:25:37;;;;;;;36.10;33.15;;;;;;;;;;4959452;28;20171;-43
2023/12/10 12:28:06;;;;;;;43.75;40.63;;;;;;;;;;4959821;28;20327;-43
2023/12/10 12:30:33;;;;;;;28.13;26.13;;;;;;;;;;4966311;28;20194;-43
2023/12/10 12:32:59;;;;;;;31.27;29.13;;;;;;;;;;4971237;28;20282;-42
2023/12/10 12:35:26;;;;;;;20.17;18.97;;;;;;;;;;4971856;28;20296;-42
2023/12/10 12:37:52;;;;;;;24.85;23.40;;;;;;;;;;4954812;28;20406;-43
2023/12/10 12:40:20;;;;;;;30.10;28.10;;;;;;;;;;4964997;28;20291;-43
2023/12/10 12:42:46;;;;;;;33.80;31.90;;;;;;;;;;4962534;28;20179;-43
2023/12/10 12:45:12;;;;;;;33.47;31.53;;;;;;;;;;4959441;28;20179;-42
2023/12/10 12:47:38;;;;;;;57.97;51.97;;;;;;;;;;4970742;28;20406;-42
2023/12/10 12:50:05;;;;;;;66.53;55.35;;;;;;;;;;4956922;28;20449;-43
2023/12/10 12:52:32;;;;;;;69.72;54.65;;;;;;;;;;4974843;28;20174;-43
2023/12/10 12:54:58;;;;;;;88.60;57.25;;;;;;;;;;4965305;28;20219;-43
2023/12/10 12:57:24;;;;;;;75.20;53.47;;;;;;;;;;4975976;28;20688;-42
2023/12/10 12:59:50;;;;;;;67.23;52.87;;;;;;;;;;4970080;28;20232;-43
2023/12/10 13:02:16;;;;;;;86.03;58.07;;;;;;;;;;4958575;28;20444;-43
2023/12/10 13:04:42;;;;;;;93.13;57.57;;;;;;;;;;4976282;28;20421;-43
2023/12/10 13:07:08;;;;;;;107.03;62.47;;;;;;;;;;4958739;28;20507;-43
2023/12/10 13:09:34;;;;;;;112.67;56.37;;;;;;;;;;4969536;28;20432;-43
2023/12/10 13:12:00;;;;;;;128.33;59.07;;;;;;;;;;4966725;28;20427;-43
2023/12/10 13:14:26;;;;;;;110.30;56.15;;;;;;;;;;4961813;28;21029;-43
2023/12/10 13:16:52;;;;;;;109.97;59.37;;;;;;;;;;4974675;28;20170;-43
2023/12/10 13:19:18;;;;;;;119.53;59.35;;;;;;;;;;4956362;28;20427;-43
2023/12/10 13:21:44;;;;;;;113.72;61.72;;;;;;;;;;4973065;28;20185;-43
2023/12/10 13:24:10;;;;;;;113.50;58.07;;;;;;;;;;4975654;28;20182;-43
2023/12/10 13:26:36;;;;;;;120.72;57.90;;;;;;;;;;4966927;28;20441;-43
2023/12/10 13:29:02;;;;;;;125.70;60.50;;;;;;;;;;4960701;28;20255;-42
2023/12/10 13:31:28;;;;;;;126.67;59.10;;;;;;;;;;4975101;28;20905;-43
2023/12/10 13:33:54;;;;;;;136.77;58.60;;;;;;;;;;4975739;28;20498;-43
2023/12/10 13:36:20;;;;;;;146.17;60.27;;;;;;;;;;4975292;28;20416;-43
2023/12/10 13:38:46;;;;;;;145.27;60.13;;;;;;;;;;4963008;28;20917;-43
2023/12/10 13:41:12;;;;;;;139.37;58.27;;;;;;;;;;4964215;28;20174;-43
2023/12/10 13:43:38;;;;;;;160.55;63.83;;;;;;;;;;4971479;28;20803;-43
2023/12/10 13:46:05;;;;;;;149.47;56.87;;;;;;;;;;4956255;28;20170;-43
2023/12/10 13:48:31;;;;;;;190.32;65.50;;;;;;;;;;4975164;28;20410;-42
2023/12/10 13:50:57;;;;;;;180.67;59.63;;;;;;;;;;4959291;28;20555;-43
2023/12/10 13:53:23;;;;;;;181.63;66.93;;;;;;;;;;4967601;28;20472;-43
2023/12/10 13:55:49;;;;;;;186.77;67.27;;;;;;;;;;4974636;28;20905;-43
2023/12/10 13:58:15;;;;;;;185.70;70.07;;;;;;;;;;4970966;28;20429;-43
2023/12/10 14:00:41;;;;;;;184.67;66.87;;;;;;;;;;4955594;28;20552;-42
2023/12/10 14:03:07;;;;;;;188.87;65.50;;;;;;;;;;4974781;28;20917;-42
2023/12/10 14:05:33;;;;;;;190.27;61.63;;;;;;;;;;4959695;28;20494;-43
2023/12/10 14:07:59;;;;;;;187.88;62.55;;;;;;;;;;4966820;28;20897;-43